Airfield :
LOGIN :

Register | Disclaimer

   EN    FR    IT 

 










Legend :    VFR   Marginal VFR   IFR   Intensive IFR   Very Intensive IFR
Visi :
Ceiling :
>= 8 km
>= 3000ft
5 to 8 km
1000 to 3000 ft
1500m to 5 km
500 to 1000 ft
800 to 1500m
200 to 500 ft
< 800m
< 200 ft
Symbols :   Thunderstorms  Fog  Heavy snow  Heavy precipitations  Wind > 20 kt
SIGMETs :     Misc.  Thunderstorms  Icing  Turbulence  Mountain Waves  Volcanic Ashes







- Airport Elevation : 266 ft
- IATA code : NCL
- Download approach charts


EGNT - Newcastle

CURRENT METAR :
  • 210350Z 23004KT CAVOK M02/M03 Q1011

EXPIRED METARs :
  • 210250Z 24004KT CAVOK M02/M04 Q1011
  • 210220Z 25003KT CAVOK M02/M04 Q1011
  • 210150Z 27003KT CAVOK M01/M04 Q1011

TAF TAF EGNT
Valid from the 21 at 00:00 until the 22 at 00:00 UTC


202304Z 2100/2124 27008KT 9999 FEW020
PROB30
TEMPO 2100/2109 2000 BR
BECMG 2110/2113 16010KT
TEMPO 2113/2122 7000 -RA BKN008
PROB30
TEMPO 2113/2116 4000 RA -RASN BKN004
PROB30
TEMPO 2116/2118 FZRA
BECMG 2118/2121 22012KT
BECMG 2121/2124 28013KT
PROB40
TEMPO 2121/2124 27016G26KT
ATIS : +44 191 214 3400
No reported NOTAMs for that airfield.
1 SIGMET reported for the Scottish FIR (EGPX) :
 
Severe icing
EGPX SIGMET 02 VALID 210435/210715 EGRR
EGPX SCOTTISH FIR SEV ICE FCST SW OF LINE N5759 W01000 - N5500 W00248 FL020/140 MOV NE 10KT NC=



MET'MAP, your aeronautical weather chart ! - Copyright ORBIFLY December 2007 - Disclaimer

ORBIFLY MET'MAP TEAM :

Programming & Development : Alexandra Zaïnal
Concept & Development : Baudouin d'Aumeries
Co-Development & Prog : Marc-Olivier Méhu
Technical & hardware support : Manuel Goepfert

Contact : metmap@orbifly.com




SOURCES & CREDITS :

   NOAA